Time;durP1;ratioP1;P1;durP2;ratioP2;P2;SDS_P1;SDS_P2;PMS_P1;PMS_P2;Temp;Humidity;BMP_temperature;BMP_pressure;BME280_temperature;BME280_humidity;BME280_pressure;Samples;Min_cycle;Max_cycle;Signal;HPM_P1;HPM_P2
2022/11/10 00:01:24;;;;;;;19.02;9.30;;;;;;;15.85;100.00;101641.34;2100730;28;20055;-72
2022/11/10 00:03:08;;;;;;;20.52;8.43;;;;;;;15.86;100.00;101632.47;2093927;28;20589;-72
2022/11/10 00:04:49;;;;;;;22.08;9.65;;;;;;;15.84;100.00;101639.56;2101355;28;20048;-72
2022/11/10 00:06:31;;;;;;;18.85;8.60;;;;;;;15.84;100.00;101634.22;2096315;28;20049;-72
2022/11/10 00:08:12;;;;;;;22.20;9.13;;;;;;;15.85;100.00;101636.03;2104291;28;20138;-71
2022/11/10 00:09:53;;;;;;;24.27;9.13;;;;;;;15.87;100.00;101636.03;2096179;28;20484;-71
2022/11/10 00:11:34;;;;;;;21.60;9.07;;;;;;;15.90;100.00;101636.06;2104374;28;20054;-71
2022/11/10 00:13:15;;;;;;;19.80;8.73;;;;;;;15.92;100.00;101632.53;2088124;28;20075;-72
2022/11/10 00:17:00;;;;;;;21.83;9.45;;;;;;;15.90;100.00;101636.94;2097630;28;20040;-71
2022/11/10 00:18:42;;;;;;;22.30;8.98;;;;;;;15.90;100.00;101631.63;2096971;28;20044;-71
2022/11/10 00:20:23;;;;;;;;;;;;;;;15.88;100.00;101630.69;2101355;28;20500;-71
2022/11/10 00:22:04;;;;;;;19.15;8.43;;;;;;;15.91;100.00;101630.75;2088243;28;20437;-71
2022/11/10 00:23:46;;;;;;;20.92;8.98;;;;;;;15.92;100.00;101623.66;2096087;28;20072;-72
2022/11/10 00:25:27;;;;;;;16.95;8.40;;;;;;;15.94;100.00;101619.22;2095685;28;20494;-71
2022/11/10 00:27:08;;;;;;;22.83;9.45;;;;;;;15.93;100.00;101614.78;2096562;28;20053;-71
2022/11/10 00:28:50;;;;;;;22.13;8.82;;;;;;;15.89;100.00;101616.50;2088132;28;20071;-71
2022/11/10 00:30:31;;;;;;;23.95;9.02;;;;;;;15.89;100.00;101611.19;2088084;28;20065;-72
2022/11/10 00:32:12;;;;;;;18.95;8.90;;;;;;;15.89;100.00;101605.88;2096099;28;20049;-72
2022/11/10 00:33:55;;;;;;;32.47;13.93;;;;;;;15.89;100.00;101612.97;2087939;28;20053;-72
2022/11/10 00:35:35;;;;;;;19.00;9.65;;;;;;;15.89;100.00;101608.53;2088206;28;20088;-71
2022/11/10 00:37:16;;;;;;;22.92;9.82;;;;;;;15.90;100.00;101610.31;2096471;28;20098;-72
2022/11/10 00:38:58;;;;;;;20.48;8.43;;;;;;;15.91;100.00;101622.75;2098867;28;20570;-72
2022/11/10 00:40:38;;;;;;;16.25;8.02;;;;;;;15.92;100.00;101619.22;2104649;28;20109;-72
2022/11/10 00:42:19;;;;;;;17.50;8.18;;;;;;;15.91;100.00;101622.75;2096107;28;20402;-72
2022/11/10 00:44:00;;;;;;;20.88;9.80;;;;;;;15.89;100.00;101619.19;2104684;28;20072;-72
2022/11/10 00:45:43;;;;;;;18.45;8.63;;;;;;;15.85;100.00;101617.38;2096572;28;20049;-72
2022/11/10 00:47:25;;;;;;;17.30;8.55;;;;;;;15.84;100.00;101618.25;2104835;28;20043;-72
2022/11/10 00:49:07;;;;;;;18.10;8.30;;;;;;;15.85;100.00;101617.38;2096163;28;20053;-72
2022/11/10 00:50:48;;;;;;;22.85;8.43;;;;;;;15.85;100.00;101604.06;2099001;28;20048;-71
2022/11/10 00:52:29;;;;;;;23.08;8.93;;;;;;;15.85;100.00;101603.16;2090653;28;20049;-71
2022/11/10 00:54:10;;;;;;;20.85;9.18;;;;;;;15.86;100.00;101600.53;2104217;28;20060;-71
2022/11/10 00:55:51;;;;;;;25.23;9.80;;;;;;;15.87;100.00;101606.75;2096082;28;20072;-71
2022/11/10 00:57:31;;;;;;;16.23;8.63;;;;;;;15.86;100.00;101603.19;2096119;28;20032;-71
2022/11/10 00:59:12;;;;;;;16.83;8.40;;;;;;;15.89;100.00;101597.88;2095805;28;20370;-71
2022/11/10 01:01:01;;;;;;;24.40;10.60;;;;;;;15.94;100.00;101611.25;2095814;28;20068;-71
2022/11/10 01:02:42;;;;;;;22.00;9.20;;;;;;;15.96;100.00;101604.13;2102040;28;20093;-71
2022/11/10 01:04:25;;;;;;;22.80;11.25;;;;;;;15.93;100.00;101605.03;2096264;28;20071;-71
2022/11/10 01:06:06;;;;;;;23.73;9.90;;;;;;;15.90;100.00;101609.41;2088075;28;20073;-71
2022/11/10 01:07:47;;;;;;;18.92;8.80;;;;;;;15.88;100.00;101597.88;2100035;28;20094;-71
2022/11/10 01:09:28;;;;;;;18.27;8.38;;;;;;;15.84;100.00;101602.28;2096205;28;20080;-71
2022/11/10 01:11:12;;;;;;;17.63;7.78;;;;;;;15.82;100.00;101595.16;2096316;28;20049;-71
2022/11/10 01:12:54;;;;;;;15.45;8.57;;;;;;;15.80;100.00;101589.84;2095049;28;20496;-71
2022/11/10 01:14:34;;;;;;;17.77;8.25;;;;;;;15.79;100.00;101604.03;2099840;28;20056;-72
2022/11/10 01:16:18;;;;;;;21.27;9.15;;;;;;;15.80;100.00;101592.50;2089460;28;20456;-72
2022/11/10 01:17:58;;;;;;;17.15;7.60;;;;;;;15.82;100.00;101598.69;2104548;28;20044;-71
2022/11/10 01:19:42;;;;;;;19.67;9.25;;;;;;;15.82;100.00;101593.38;2089538;28;20049;-71
2022/11/10 01:21:24;;;;;;;16.83;8.23;;;;;;;15.81;100.00;101607.59;2105719;28;20457;-71
2022/11/10 01:23:05;;;;;;;18.38;8.77;;;;;;;15.77;100.00;101599.56;2097429;28;20099;-71
2022/11/10 01:24:45;;;;;;;18.58;8.38;;;;;;;15.78;100.00;101596.91;2103616;28;20062;-71
2022/11/10 01:26:26;;;;;;;17.75;8.38;;;;;;;15.78;100.00;101591.59;2089070;28;20097;-71
2022/11/10 01:28:07;;;;;;;18.75;8.27;;;;;;;15.80;100.00;101602.25;2097657;28;20083;-71
2022/11/10 01:29:48;;;;;;;18.95;7.90;;;;;;;15.81;100.00;101588.97;2089646;28;20044;-71
2022/11/10 01:31:29;;;;;;;19.33;8.90;;;;;;;15.88;100.00;101587.25;2097808;28;20140;-71
2022/11/10 01:33:09;;;;;;;15.43;8.02;;;;;;;15.92;100.00;101595.25;2089403;28;20041;-72
2022/11/10 01:34:52;;;;;;;20.58;9.70;;;;;;;15.94;100.00;101588.16;2097244;28;20044;-72
2022/11/10 01:36:33;;;;;;;19.33;9.57;;;;;;;15.99;100.00;101601.50;2105572;28;20543;-71
2022/11/10 01:38:14;;;;;;;20.50;9.60;;;;;;;16.04;100.00;101599.75;2097759;28;20536;-71
2022/11/10 01:39:54;;;;;;;25.88;9.60;;;;;;;16.04;100.00;101599.75;2106042;28;20381;-71
2022/11/10 01:41:35;;;;;;;26.90;10.68;;;;;;;16.08;100.00;101593.56;2097462;28;20051;-71
2022/11/10 01:43:16;;;;;;;24.75;9.27;;;;;;;16.14;100.00;101595.41;2096796;28;20091;-71
2022/11/10 01:45:40;;;;;;;19.38;8.68;;;;;;;16.15;100.00;101590.06;2097539;28;20385;-72
2022/11/10 01:47:21;;;;;;;20.52;9.65;;;;;;;16.07;100.00;101589.13;2097727;28;20052;-71
2022/11/10 01:49:05;;;;;;;18.80;10.13;;;;;;;16.07;100.00;101590.91;2089251;28;20064;-71
2022/11/10 01:50:48;;;;;;;20.08;9.75;;;;;;;16.09;100.00;101587.34;2105636;28;20074;-71
2022/11/10 01:52:32;;;;;;;22.55;8.60;;;;;;;16.08;100.00;101585.56;2097514;28;20071;-71
2022/11/10 01:54:18;;;;;;;25.05;8.73;;;;;;;16.09;100.00;101591.78;2097132;28;20057;-72
2022/11/10 01:55:59;;;;;;;18.25;8.90;;;;;;;16.07;100.00;101593.56;2105859;28;20075;-71
2022/11/10 01:57:42;;;;;;;23.52;9.38;;;;;;;16.02;100.00;101588.19;2096940;28;20586;-72
2022/11/10 01:59:26;;;;;;;18.42;9.05;;;;;;;16.01;100.00;101590.88;2097863;28;20049;-72
2022/11/10 02:01:07;;;;;;;17.52;9.10;;;;;;;16.00;100.00;101586.41;2097304;28;20552;-71
2022/11/10 02:02:54;;;;;;;20.08;8.77;;;;;;;15.98;100.00;101583.75;2105875;28;20040;-71
2022/11/10 02:04:37;;;;;;;17.02;7.80;;;;;;;15.94;100.00;101581.94;2088906;28;20049;-71
2022/11/10 02:06:22;;;;;;;19.42;8.57;;;;;;;15.92;100.00;101589.03;2097434;28;20058;-70
2022/11/10 02:08:05;;;;;;;17.90;7.97;;;;;;;15.92;100.00;101583.69;2097312;28;20116;-71
2022/11/10 02:09:46;;;;;;;18.20;8.75;;;;;;;15.93;100.00;101585.50;2098000;28;20090;-71
2022/11/10 02:11:28;;;;;;;18.88;8.32;;;;;;;15.91;100.00;101589.91;2089932;28;20057;-70
2022/11/10 02:13:10;;;;;;;21.95;8.50;;;;;;;15.88;100.00;101593.41;2097545;28;20044;-71
2022/11/10 02:14:51;;;;;;;21.63;8.77;;;;;;;15.86;100.00;101589.88;2097461;28;20045;-71
2022/11/10 02:16:32;;;;;;;19.23;8.98;;;;;;;15.86;100.00;101595.19;2097208;28;20290;-72
2022/11/10 02:18:13;;;;;;;17.73;8.13;;;;;;;15.85;100.00;101589.88;2096882;28;20382;-71
2022/11/10 02:19:54;;;;;;;17.33;7.90;;;;;;;15.84;100.00;101594.28;2098262;28;20045;-71
2022/11/10 02:21:36;;;;;;;20.13;8.65;;;;;;;15.84;100.00;101596.94;2098404;28;20052;-71
2022/11/10 02:23:45;;;;;;;17.75;8.75;;;;;;;15.86;100.00;101589.88;2093845;28;20139;-71
2022/11/10 02:25:32;;;;;;;19.38;9.18;;;;;;;15.86;100.00;101589.88;2097043;28;20041;-72
2022/11/10 02:27:13;;;;;;;18.55;9.18;;;;;;;15.84;100.00;101583.63;2088937;28;20057;-71
2022/11/10 02:28:54;;;;;;;15.85;7.78;;;;;;;15.86;100.00;101595.19;2096935;28;20048;-72
2022/11/10 02:30:34;;;;;;;17.23;8.75;;;;;;;15.89;100.00;101594.31;2097083;28;20048;-72
2022/11/10 02:32:16;;;;;;;18.55;8.85;;;;;;;15.94;100.00;101598.81;2096626;28;20416;-71
2022/11/10 02:33:57;;;;;;;22.52;9.10;;;;;;;15.95;100.00;101599.69;2097282;28;20139;-72
2022/11/10 02:35:38;;;;;;;26.33;12.32;;;;;;;15.94;100.00;101598.81;2096842;28;20049;-71
2022/11/10 02:37:20;;;;;;;22.48;9.18;;;;;;;15.97;100.00;101597.94;2097097;28;20078;-71
2022/11/10 02:39:01;;;;;;;;;;;;;;;15.92;100.00;101595.25;2097225;28;20759;-71
2022/11/10 02:40:42;;;;;;;18.63;8.88;;;;;;;15.92;100.00;101603.25;2097246;28;19947;-71
2022/11/10 02:42:23;;;;;;;18.45;7.50;;;;;;;15.92;100.00;101605.00;2104919;28;20062;-71
2022/11/10 02:44:06;;;;;;;19.33;8.18;;;;;;;15.91;100.00;101606.78;2096200;28;20063;-71
2022/11/10 02:45:47;;;;;;;17.92;8.45;;;;;;;15.91;100.00;101604.13;2097346;28;20162;-72
2022/11/10 02:47:27;;;;;;;22.33;9.73;;;;;;;15.94;100.00;101597.94;2105160;28;20036;-72
2022/11/10 02:49:08;;;;;;;19.33;8.70;;;;;;;15.93;100.00;101599.69;2097319;28;20048;-71
2022/11/10 02:50:49;;;;;;;19.98;8.85;;;;;;;15.95;100.00;101599.69;2099140;28;20049;-72
2022/11/10 02:52:32;;;;;;;20.48;8.77;;;;;;;15.98;100.00;101602.38;2097053;28;20057;-72
2022/11/10 02:54:13;;;;;;;21.70;9.55;;;;;;;15.99;100.00;101600.63;2097000;28;20083;-72
2022/11/10 02:55:54;;;;;;;18.80;8.90;;;;;;;16.02;100.00;101611.28;2097322;28;20040;-72
2022/11/10 02:57:35;;;;;;;21.40;8.52;;;;;;;16.01;100.00;101613.06;2103865;28;20056;-71
2022/11/10 02:59:16;;;;;;;15.35;9.00;;;;;;;16.01;100.00;101609.50;2097099;28;20155;-72
2022/11/10 03:00:58;;;;;;;18.25;9.63;;;;;;;16.01;100.00;101613.06;2096271;28;20045;-71
2022/11/10 03:02:38;;;;;;;20.52;10.00;;;;;;;16.01;100.00;101609.50;2097093;28;20079;-71
2022/11/10 03:04:20;;;;;;;18.77;8.25;;;;;;;16.00;100.00;101607.72;2088790;28;20459;-71
2022/11/10 03:06:00;;;;;;;18.50;8.38;;;;;;;16.02;100.00;101601.50;2094931;28;20072;-72
2022/11/10 03:07:43;;;;;;;19.02;8.45;;;;;;;16.03;100.00;101608.63;2102232;28;20040;-72
2022/11/10 03:09:24;;;;;;;17.67;8.45;;;;;;;16.03;100.00;101613.94;2105260;28;20086;-72
2022/11/10 03:11:05;;;;;;;17.77;8.52;;;;;;;16.04;100.00;101609.53;2105117;28;20052;-72
2022/11/10 03:12:47;;;;;;;22.30;9.45;;;;;;;16.03;100.00;101618.38;2088682;28;20106;-72
2022/11/10 03:14:27;;;;;;;21.60;9.00;;;;;;;16.02;100.00;101621.91;2096451;28;20057;-73
2022/11/10 03:16:08;;;;;;;18.88;8.75;;;;;;;16.00;100.00;101619.28;2094362;28;20519;-73
2022/11/10 03:17:49;;;;;;;19.65;8.50;;;;;;;16.06;100.00;101610.44;2097057;28;20045;-72
2022/11/10 03:19:30;;;;;;;20.42;9.00;;;;;;;16.13;100.00;101623.81;2088378;28;20055;-72
2022/11/10 03:21:11;;;;;;;23.08;9.13;;;;;;;16.22;100.00;101617.63;2096315;28;20052;-73
2022/11/10 03:22:53;;;;;;;18.05;8.55;;;;;;;16.28;100.00;101620.31;2097080;28;20095;-72
2022/11/10 03:24:34;;;;;;;20.92;8.80;;;;;;;16.31;100.00;101621.25;2088731;28;20053;-72
2022/11/10 03:26:15;;;;;;;17.63;8.02;;;;;;;16.32;100.00;101616.81;2096595;28;20122;-72
2022/11/10 03:27:59;;;;;;;15.90;7.75;;;;;;;16.34;100.00;101620.38;2082751;28;20069;-73
2022/11/10 03:29:39;;;;;;;21.00;7.95;;;;;;;16.39;100.00;101617.75;2088405;28;20160;-71
2022/11/10 03:31:20;;;;;;;20.27;8.98;;;;;;;16.41;100.00;101622.19;2096696;28;20059;-72
2022/11/10 03:33:01;;;;;;;15.10;8.18;;;;;;;16.41;100.00;101627.50;2088836;28;20079;-71
2022/11/10 03:34:42;;;;;;;18.05;9.20;;;;;;;16.41;100.00;101630.16;2088593;28;20051;-71
2022/11/10 03:36:23;;;;;;;20.30;8.27;;;;;;;16.38;100.00;101622.19;2088492;28;20478;-72
2022/11/10 03:38:05;;;;;;;17.50;7.97;;;;;;;16.32;100.00;101628.38;2096670;28;20524;-72
2022/11/10 03:39:45;;;;;;;15.98;8.13;;;;;;;16.31;100.00;101626.56;2091167;28;20048;-72
2022/11/10 03:41:26;;;;;;;15.82;8.30;;;;;;;16.32;100.00;101622.16;2096206;28;20052;-72
2022/11/10 03:43:07;;;;;;;19.75;8.27;;;;;;;16.31;100.00;101615.91;2103171;28;20048;-72
2022/11/10 03:44:47;;;;;;;19.52;9.85;;;;;;;16.29;100.00;101615.00;2087500;28;20719;-71
2022/11/10 03:46:28;;;;;;;15.60;7.78;;;;;;;16.29;100.00;101620.34;2096591;28;20088;-72
2022/11/10 03:48:09;;;;;;;21.60;8.38;;;;;;;16.33;100.00;101614.16;2088554;28;20130;-71
2022/11/10 03:49:50;;;;;;;16.20;7.88;;;;;;;16.34;100.00;101631.06;2095940;28;20048;-72
2022/11/10 03:51:31;;;;;;;19.02;7.63;;;;;;;16.34;100.00;101628.38;2095814;28;20460;-72
2022/11/10 03:53:14;;;;;;;15.40;8.00;;;;;;;16.34;100.00;101625.72;2104415;28;20040;-72
2022/11/10 03:54:55;;;;;;;15.50;8.45;;;;;;;16.32;100.00;101635.47;2096706;28;20102;-72
2022/11/10 03:56:35;;;;;;;17.85;8.25;;;;;;;16.30;100.00;101629.22;2096390;28;20106;-72
2022/11/10 03:58:16;;;;;;;20.48;8.30;;;;;;;16.31;100.00;101628.34;2092476;28;20148;-72
2022/11/10 03:59:57;;;;;;;18.27;8.27;;;;;;;16.31;100.00;101625.69;2099407;28;20109;-71
2022/11/10 04:01:38;;;;;;;18.10;8.07;;;;;;;16.29;100.00;101625.66;2096444;28;20044;-72
2022/11/10 04:03:19;;;;;;;17.08;8.15;;;;;;;16.31;100.00;101623.91;2102925;28;20464;-71
2022/11/10 04:09:01;;;;;;;20.02;8.43;;;;;;;16.39;100.00;101625.75;2088235;28;20059;-71
2022/11/10 04:10:43;;;;;;;18.88;9.57;;;;;;;16.42;100.00;101629.28;2096401;28;20072;-71
2022/11/10 04:16:21;;;;;;;23.52;9.10;;;;;;;16.42;100.00;101623.97;2095575;28;20044;-71
2022/11/10 04:19:56;;;;;;;20.45;8.48;;;;;;;16.44;100.00;101626.66;2104713;28;20044;-72
2022/11/10 04:21:37;;;;;;;20.92;9.93;;;;;;;16.43;100.00;101631.09;2096578;28;20056;-72
2022/11/10 04:23:26;;;;;;;20.25;8.65;;;;;;;16.39;100.00;101629.28;2088384;28;20718;-72
2022/11/10 04:25:09;;;;;;;22.70;11.43;;;;;;;16.33;100.00;101634.59;2096390;28;20044;-72
2022/11/10 04:26:49;;;;;;;25.45;9.23;;;;;;;16.31;100.00;101633.69;2088051;28;20048;-72
2022/11/10 04:28:30;;;;;;;17.98;9.48;;;;;;;16.27;100.00;101637.22;2096082;28;20523;-72
2022/11/10 04:30:11;;;;;;;16.40;9.25;;;;;;;16.24;100.00;101642.50;2088042;28;20076;-72
2022/11/10 04:31:53;;;;;;;21.55;9.27;;;;;;;16.18;100.00;101635.38;2096353;28;20560;-72
2022/11/10 04:33:33;;;;;;;19.90;9.48;;;;;;;16.13;100.00;101645.13;2088277;28;20045;-72
2022/11/10 04:35:14;;;;;;;20.75;9.23;;;;;;;16.09;100.00;101645.97;2096433;28;20098;-71
2022/11/10 04:36:56;;;;;;;22.17;9.63;;;;;;;16.05;100.00;101652.16;2096449;28;20377;-72
2022/11/10 04:38:37;;;;;;;21.77;9.02;;;;;;;16.02;100.00;101656.56;2095884;28;20060;-72
2022/11/10 04:40:19;;;;;;;17.52;9.13;;;;;;;16.01;100.00;101654.78;2088197;28;20048;-71
2022/11/10 04:42:00;;;;;;;20.83;8.65;;;;;;;16.00;100.00;101658.34;2096363;28;20041;-72
2022/11/10 04:43:42;;;;;;;18.23;8.52;;;;;;;16.00;100.00;101653.00;2088338;28;20548;-72
2022/11/10 04:45:23;;;;;;;16.58;8.52;;;;;;;15.99;100.00;101653.88;2096215;28;20049;-72
2022/11/10 04:47:04;;;;;;;21.42;9.07;;;;;;;15.98;100.00;101658.31;2088144;28;20059;-72
2022/11/10 04:48:45;;;;;;;17.27;8.27;;;;;;;16.00;100.00;101661.00;2088155;28;20140;-72
2022/11/10 04:50:26;;;;;;;20.35;8.68;;;;;;;16.01;100.00;101655.69;2091113;28;20072;-72
2022/11/10 04:52:07;;;;;;;22.38;9.02;;;;;;;16.02;100.00;101662.78;2096172;28;20056;-72
2022/11/10 04:53:47;;;;;;;18.95;8.88;;;;;;;16.03;100.00;101658.34;2104422;28;20044;-72
2022/11/10 04:55:29;;;;;;;21.23;8.82;;;;;;;16.08;100.00;101661.97;2096419;28;20053;-72
2022/11/10 04:57:10;;;;;;;;;;;;;;;16.07;100.00;101665.50;2099938;28;20444;-72
2022/11/10 04:58:51;;;;;;;18.25;8.43;;;;;;;16.13;100.00;101665.53;2089749;28;20399;-72
2022/11/10 05:00:32;;;;;;;18.08;8.50;;;;;;;16.18;100.00;101671.78;2099658;28;20039;-72
2022/11/10 05:02:13;;;;;;;17.92;8.75;;;;;;;16.20;100.00;101662.94;2095418;28;20056;-73
2022/11/10 05:03:54;;;;;;;18.08;8.65;;;;;;;16.21;100.00;101669.16;2101174;28;20625;-72
2022/11/10 05:05:34;;;;;;;20.25;8.85;;;;;;;16.25;100.00;101671.84;2094888;28;20048;-74
2022/11/10 05:07:15;;;;;;;23.08;8.85;;;;;;;16.27;100.00;101672.75;2096855;28;20052;-72
2022/11/10 05:08:56;;;;;;;19.55;9.02;;;;;;;16.33;100.00;101656.81;2105825;28;20561;-73
2022/11/10 05:10:39;;;;;;;16.58;8.57;;;;;;;16.44;100.00;101662.19;2096977;28;20052;-72
2022/11/10 05:12:19;;;;;;;;;;;;;;;16.50;100.00;101670.22;2100647;28;20044;-72
2022/11/10 05:14:01;;;;;;;16.50;8.55;;;;;;;16.60;100.00;101671.22;2099230;28;20436;-73
2022/11/10 05:15:42;;;;;;;15.25;8.25;;;;;;;16.67;100.00;101671.22;2095726;28;20075;-72
2022/11/10 05:17:23;;;;;;;20.02;9.07;;;;;;;16.71;100.00;101681.03;2095900;28;20057;-73
2022/11/10 05:19:03;;;;;;;17.23;8.77;;;;;;;16.69;100.00;101679.25;2097782;28;20037;-72
2022/11/10 05:20:44;;;;;;;17.48;9.15;;;;;;;16.65;100.00;101674.78;2096272;28;20048;-73
2022/11/10 05:22:25;;;;;;;15.45;8.25;;;;;;;16.62;100.00;101680.97;2097661;28;20083;-73
2022/11/10 05:24:05;;;;;;;19.33;9.43;;;;;;;16.58;100.00;101676.50;2089906;28;20467;-73
2022/11/10 05:25:47;;;;;;;15.73;8.50;;;;;;;16.56;100.00;101683.59;2097749;28;20439;-73
2022/11/10 05:27:28;;;;;;;14.25;7.93;;;;;;;16.55;100.00;101683.56;2089122;28;20076;-72
2022/11/10 05:29:09;;;;;;;16.98;8.05;;;;;;;16.51;100.00;101677.34;2097180;28;20049;-72
2022/11/10 05:30:50;;;;;;;20.38;8.63;;;;;;;16.49;100.00;101692.41;2096478;28;20040;-73
2022/11/10 05:32:31;;;;;;;19.10;8.45;;;;;;;16.47;100.00;101690.66;2092205;28;20040;-73
2022/11/10 05:34:11;;;;;;;22.33;8.48;;;;;;;16.45;100.00;101692.41;2097215;28;20620;-73
2022/11/10 05:35:52;;;;;;;16.95;8.43;;;;;;;16.43;100.00;101691.50;2104369;28;20544;-73
2022/11/10 05:37:33;;;;;;;13.38;7.88;;;;;;;16.45;100.00;101697.72;2097019;28;20041;-72
2022/11/10 05:39:14;;;;;;;18.55;8.57;;;;;;;16.43;100.00;101700.38;2097531;28;20083;-72
2022/11/10 05:40:56;;;;;;;20.55;9.57;;;;;;;16.47;100.00;101695.97;2097789;28;20083;-72
2022/11/10 05:42:43;;;;;;;19.25;8.15;;;;;;;16.61;100.00;101697.84;2105387;28;20074;-72
2022/11/10 05:44:24;;;;;;;15.90;8.38;;;;;;;16.80;100.00;101704.22;2106232;28;20052;-73
2022/11/10 05:46:05;;;;;;;17.58;8.27;;;;;;;16.92;100.00;101698.94;2106018;28;20055;-72
2022/11/10 05:47:46;;;;;;;19.58;8.93;;;;;;;16.99;100.00;101700.75;2105805;28;20040;-72
2022/11/10 05:49:28;;;;;;;16.90;9.20;;;;;;;17.03;100.00;101698.97;2089166;28;20114;-73
2022/11/10 05:51:08;;;;;;;17.88;8.25;;;;;;;17.08;100.00;101702.53;2089405;28;20060;-73
2022/11/10 05:52:51;;;;;;;17.00;8.02;;;;;;;17.09;100.00;101704.31;2089322;28;20048;-73
2022/11/10 05:54:32;;;;;;;16.00;7.88;;;;;;;17.07;100.00;101700.75;2097685;28;20072;-73
2022/11/10 05:56:15;;;;;;;16.17;8.20;;;;;;;17.05;100.00;101710.56;2089004;28;20056;-73
2022/11/10 05:57:57;;;;;;;;;;;;;;;17.00;100.00;101720.31;2098079;28;20040;-73
2022/11/10 05:59:37;;;;;;;16.73;7.53;;;;;;;17.04;100.00;101717.66;2089522;28;19925;-73
2022/11/10 06:01:18;;;;;;;18.33;7.85;;;;;;;17.12;100.00;101718.59;2099183;28;20052;-72
2022/11/10 06:03:01;;;;;;;16.42;8.25;;;;;;;17.21;100.00;101720.38;2097280;28;20044;-73
2022/11/10 06:04:42;;;;;;;17.20;8.27;;;;;;;17.26;100.00;101720.41;2105840;28;20055;-73
2022/11/10 06:06:23;;;;;;;19.60;8.45;;;;;;;17.23;100.00;101729.28;2097691;28;20053;-73
2022/11/10 06:08:05;;;;;;;17.35;8.65;;;;;;;17.19;100.00;101732.84;2105000;28;20036;-72
2022/11/10 06:09:44;;;;;;;17.42;8.68;;;;;;;17.14;100.00;101723.91;2097398;28;20067;-73
2022/11/10 06:11:27;;;;;;;16.25;9.38;;;;;;;17.09;100.00;101725.66;2105736;28;20147;-73
2022/11/10 06:13:08;;;;;;;;;;;;;;;17.02;100.00;101726.53;2089632;28;20091;-73
2022/11/10 06:14:49;;;;;;;20.70;8.75;;;;;;;17.01;100.00;101730.06;2105719;28;19920;-73
2022/11/10 06:16:30;;;;;;;20.52;8.65;;;;;;;17.00;100.00;101737.19;2105959;28;20052;-73
2022/11/10 06:18:10;;;;;;;18.27;8.57;;;;;;;17.03;100.00;101741.66;2105862;28;20523;-72
2022/11/10 06:19:51;;;;;;;17.20;8.73;;;;;;;17.05;100.00;101745.22;2105926;28;20560;-73
2022/11/10 06:21:32;;;;;;;18.92;7.53;;;;;;;17.06;100.00;101737.25;2105683;28;20540;-72
2022/11/10 06:23:14;;;;;;;24.25;8.57;;;;;;;17.09;100.00;101741.69;2105453;28;20040;-73
2022/11/10 06:24:55;;;;;;;16.65;8.68;;;;;;;17.21;100.00;101741.72;2105945;28;20043;-73
2022/11/10 06:26:37;;;;;;;19.13;8.05;;;;;;;17.44;100.00;101747.16;2102886;28;20097;-73
2022/11/10 06:28:18;;;;;;;17.77;8.10;;;;;;;17.68;100.00;101746.38;2105695;28;20052;-73
2022/11/10 06:29:59;;;;;;;18.42;8.32;;;;;;;17.92;100.00;101743.72;2105444;28;20555;-73
2022/11/10 06:31:40;;;;;;;20.13;7.75;;;;;;;18.09;100.00;101735.75;2105485;28;20139;-74
2022/11/10 06:33:21;;;;;;;14.80;8.02;;;;;;;18.14;100.00;101739.31;2099726;28;20377;-74
2022/11/10 06:35:01;;;;;;;16.33;7.82;;;;;;;18.10;100.00;101750.91;2105629;28;20055;-72
2022/11/10 06:36:42;;;;;;;21.15;8.43;;;;;;;18.03;100.00;101750.00;2105690;28;20044;-73
2022/11/10 06:38:23;;;;;;;14.27;7.93;;;;;;;17.99;100.00;101752.66;2105167;28;20051;-73
2022/11/10 06:40:05;;;;;;;15.30;7.47;;;;;;;17.97;100.00;101763.34;2105480;28;20139;-73
2022/11/10 06:41:47;;;;;;;14.95;7.93;;;;;;;18.00;100.00;101758.00;2088941;28;20037;-73
2022/11/10 06:43:28;;;;;;;14.73;7.55;;;;;;;18.02;100.00;101752.66;2089111;28;20049;-74
2022/11/10 06:45:10;;;;;;;13.77;7.30;;;;;;;18.06;100.00;101757.09;2088702;28;20436;-73
2022/11/10 06:46:51;;;;;;;15.18;7.07;;;;;;;18.18;100.00;101757.16;2089014;28;20091;-73
2022/11/10 06:48:32;;;;;;;22.00;8.18;;;;;;;18.50;100.00;101759.81;2088768;28;20484;-73
2022/11/10 06:50:14;;;;;;;14.95;6.78;;;;;;;18.92;100.00;101759.75;2096094;28;20057;-73
2022/11/10 06:51:54;;;;;;;15.23;7.03;;;;;;;19.27;100.00;101756.06;2088736;28;20037;-73
2022/11/10 06:53:36;;;;;;;17.25;6.15;;;;;;;19.48;100.00;101756.91;2097035;28;20102;-73
2022/11/10 06:55:17;;;;;;;18.35;7.35;;;;;;;19.56;100.00;101753.28;2097146;28;20860;-73
2022/11/10 06:56:59;;;;;;;12.43;5.95;;;;;;;19.49;100.00;101755.13;2089880;28;20049;-73
2022/11/10 06:58:40;;;;;;;16.83;7.25;;;;;;;19.58;100.00;101752.38;2104782;28;20055;-73
2022/11/10 07:00:22;;;;;;;15.40;6.70;;;;;;;19.82;100.00;101762.06;2096690;28;20098;-72
2022/11/10 07:02:03;;;;;;;14.65;6.53;;;;;;;19.82;100.00;101748.66;2096496;28;20040;-73
2022/11/10 07:03:44;;;;;;;17.35;6.22;;;;;;;19.63;100.00;101755.91;2105243;28;20058;-72
2022/11/10 07:05:24;;;;;;;15.43;6.80;;;;;;;19.43;100.00;101755.09;2096894;28;20036;-72
2022/11/10 07:07:05;;;;;;;16.15;6.97;;;;;;;19.26;100.00;101752.50;2102681;28;20054;-72
2022/11/10 07:08:46;;;;;;;23.58;7.88;;;;;;;19.15;100.00;101748.09;2093441;28;20052;-73
2022/11/10 07:10:34;;;;;;;15.25;6.32;;;;;;;19.16;100.00;101758.78;2090093;28;20439;-73
2022/11/10 07:12:18;;;;;;;14.35;6.13;;;;;;;19.20;100.00;101755.19;2100407;28;20334;-72
2022/11/10 07:13:59;;;;;;;16.08;7.40;;;;;;;19.19;100.00;101763.22;2096757;28;20389;-72
2022/11/10 07:15:40;;;;;;;17.23;6.88;;;;;;;19.32;100.00;101756.94;2097173;28;20135;-73
2022/11/10 07:17:21;;;;;;;14.73;6.50;;;;;;;19.42;100.00;101761.38;2098938;28;20400;-73
2022/11/10 07:19:02;;;;;;;14.02;6.13;;;;;;;19.64;100.00;101760.38;2101186;28;20079;-73
2022/11/10 07:20:44;;;;;;;16.65;6.28;;;;;;;19.94;100.00;101756.63;2111994;28;20052;-72
2022/11/10 07:22:26;;;;;;;13.52;5.95;;;;;;;20.04;100.00;101750.28;2105530;28;20044;-73
2022/11/10 07:24:07;;;;;;;12.40;5.38;;;;;;;20.00;100.00;101756.56;2101371;28;20056;-73
2022/11/10 07:25:48;;;;;;;10.65;5.85;;;;;;;19.93;100.00;101752.16;2091958;28;20080;-73
2022/11/10 07:27:31;;;;;;;18.33;6.63;;;;;;;20.02;100.00;101746.72;2094352;28;20048;-74
2022/11/10 07:29:12;;;;;;;;;;;;;;;20.09;100.00;101748.44;2104570;28;20210;-73
2022/11/10 07:30:52;;;;;;;16.45;5.95;;;;;;;20.15;100.00;101752.91;2097114;28;19920;-74
2022/11/10 07:32:34;;;;;;;16.48;5.70;;;;;;;20.20;100.00;101753.75;2102516;28;20083;-74
2022/11/10 07:34:15;;;;;;;17.55;6.55;;;;;;;20.21;100.00;101750.16;2089774;28;20520;-73
2022/11/10 07:35:57;;;;;;;14.13;6.78;;;;;;;20.37;100.00;101761.66;2105180;28;20136;-74
2022/11/10 07:37:38;;;;;;;16.10;6.05;;;;;;;20.62;100.00;101755.16;2097346;28;20068;-73
2022/11/10 07:39:19;;;;;;;16.10;5.80;;;;;;;20.77;100.00;101756.81;2104985;28;20048;-72
2022/11/10 07:41:00;;;;;;;14.20;6.00;;;;;;;21.05;100.00;101764.56;2096532;28;20044;-73
2022/11/10 07:42:42;;;;;;;13.10;5.60;;;;;;;21.20;100.00;101766.19;2105055;28;20051;-72
2022/11/10 07:44:23;;;;;;;15.05;5.90;;;;;;;21.06;100.00;101758.28;2089756;28;20091;-72
2022/11/10 07:46:04;;;;;;;16.05;5.82;;;;;;;20.84;100.00;101764.78;2096697;28;20052;-72
2022/11/10 07:47:45;;;;;;;13.88;6.10;;;;;;;20.64;100.00;101770.38;2097462;28;20083;-72
2022/11/10 07:49:25;;;;;;;14.13;6.25;;;;;;;20.42;100.00;101762.50;2097369;28;20083;-73
2022/11/10 07:51:06;;;;;;;16.48;7.40;;;;;;;20.19;100.00;101765.38;2096771;28;20056;-72
2022/11/10 07:52:47;;;;;;;13.00;5.88;;;;;;;20.03;100.00;101775.31;2105025;28;20079;-72
2022/11/10 07:54:28;;;;;;;14.95;5.72;;;;;;;20.06;100.00;101767.25;2095268;28;20071;-73
2022/11/10 07:56:09;;;;;;;14.00;6.05;;;;;;;20.44;100.00;101766.97;2100650;28;20170;-73